sensor_id;sensor_type;location;lat;lon;timestamp;P1;durP1;ratioP1;P2;durP2;ratioP2
19788;SDS011;10054;59.332;18.244;2023-03-14T00:01:58;7.80;;;1.17;;
19788;SDS011;10054;59.332;18.244;2023-03-14T00:04:28;3.53;;;1.03;;
19788;SDS011;10054;59.332;18.244;2023-03-14T00:06:57;3.43;;;1.20;;
19788;SDS011;10054;59.332;18.244;2023-03-14T00:09:26;2.33;;;1.00;;
19788;SDS011;10054;59.332;18.244;2023-03-14T00:11:56;5.27;;;1.40;;
19788;SDS011;10054;59.332;18.244;2023-03-14T00:14:26;2.93;;;1.13;;
19788;SDS011;10054;59.332;18.244;2023-03-14T00:16:54;2.53;;;0.97;;
19788;SDS011;10054;59.332;18.244;2023-03-14T00:19:23;4.67;;;1.00;;
19788;SDS011;10054;59.332;18.244;2023-03-14T00:21:52;2.90;;;0.90;;
19788;SDS011;10054;59.332;18.244;2023-03-14T00:24:21;2.67;;;0.97;;
19788;SDS011;10054;59.332;18.244;2023-03-14T00:26:50;2.73;;;1.07;;
19788;SDS011;10054;59.332;18.244;2023-03-14T00:29:21;3.93;;;0.93;;
19788;SDS011;10054;59.332;18.244;2023-03-14T00:31:50;2.97;;;1.10;;
19788;SDS011;10054;59.332;18.244;2023-03-14T00:34:20;1.80;;;0.80;;
19788;SDS011;10054;59.332;18.244;2023-03-14T00:36:48;2.50;;;0.90;;
19788;SDS011;10054;59.332;18.244;2023-03-14T00:39:17;2.07;;;0.93;;
19788;SDS011;10054;59.332;18.244;2023-03-14T00:41:46;3.40;;;0.90;;
19788;SDS011;10054;59.332;18.244;2023-03-14T00:44:16;3.67;;;0.90;;
19788;SDS011;10054;59.332;18.244;2023-03-14T00:46:46;1.40;;;1.00;;
19788;SDS011;10054;59.332;18.244;2023-03-14T00:49:15;3.93;;;0.97;;
19788;SDS011;10054;59.332;18.244;2023-03-14T00:51:44;2.40;;;0.90;;
19788;SDS011;10054;59.332;18.244;2023-03-14T00:54:13;2.53;;;0.93;;
19788;SDS011;10054;59.332;18.244;2023-03-14T00:56:42;2.50;;;1.00;;
19788;SDS011;10054;59.332;18.244;2023-03-14T00:59:11;2.10;;;0.80;;
19788;SDS011;10054;59.332;18.244;2023-03-14T01:01:40;3.07;;;1.03;;
19788;SDS011;10054;59.332;18.244;2023-03-14T01:04:09;2.87;;;0.77;;
19788;SDS011;10054;59.332;18.244;2023-03-14T01:06:39;2.50;;;0.90;;
19788;SDS011;10054;59.332;18.244;2023-03-14T01:09:09;2.63;;;1.00;;
19788;SDS011;10054;59.332;18.244;2023-03-14T01:11:38;1.97;;;0.90;;
19788;SDS011;10054;59.332;18.244;2023-03-14T01:14:07;5.03;;;0.73;;
19788;SDS011;10054;59.332;18.244;2023-03-14T01:16:37;2.73;;;0.70;;
19788;SDS011;10054;59.332;18.244;2023-03-14T01:19:06;3.90;;;1.00;;
19788;SDS011;10054;59.332;18.244;2023-03-14T01:21:36;5.20;;;1.03;;
19788;SDS011;10054;59.332;18.244;2023-03-14T01:24:05;2.63;;;0.80;;
19788;SDS011;10054;59.332;18.244;2023-03-14T01:26:35;2.77;;;0.70;;
19788;SDS011;10054;59.332;18.244;2023-03-14T01:29:04;3.00;;;0.70;;
19788;SDS011;10054;59.332;18.244;2023-03-14T01:31:34;5.27;;;0.60;;
19788;SDS011;10054;59.332;18.244;2023-03-14T01:34:03;0.87;;;0.67;;
19788;SDS011;10054;59.332;18.244;2023-03-14T01:36:32;1.27;;;0.70;;
19788;SDS011;10054;59.332;18.244;2023-03-14T01:39:02;2.67;;;0.77;;
19788;SDS011;10054;59.332;18.244;2023-03-14T01:41:33;0.77;;;0.53;;
19788;SDS011;10054;59.332;18.244;2023-03-14T01:44:02;2.77;;;0.80;;
19788;SDS011;10054;59.332;18.244;2023-03-14T01:46:32;4.83;;;0.80;;
19788;SDS011;10054;59.332;18.244;2023-03-14T01:49:08;1.43;;;0.60;;
19788;SDS011;10054;59.332;18.244;2023-03-14T01:51:52;0.77;;;0.50;;
19788;SDS011;10054;59.332;18.244;2023-03-14T01:54:39;0.77;;;0.50;;
19788;SDS011;10054;59.332;18.244;2023-03-14T01:59:46;1.43;;;0.50;;
19788;SDS011;10054;59.332;18.244;2023-03-14T02:02:17;1.17;;;0.43;;
19788;SDS011;10054;59.332;18.244;2023-03-14T02:04:47;2.60;;;0.50;;
19788;SDS011;10054;59.332;18.244;2023-03-14T02:07:19;1.93;;;0.57;;
19788;SDS011;10054;59.332;18.244;2023-03-14T02:09:51;0.80;;;0.60;;
19788;SDS011;10054;59.332;18.244;2023-03-14T02:12:21;2.23;;;0.50;;
19788;SDS011;10054;59.332;18.244;2023-03-14T02:14:52;2.60;;;0.70;;
19788;SDS011;10054;59.332;18.244;2023-03-14T02:17:26;0.80;;;0.50;;
19788;SDS011;10054;59.332;18.244;2023-03-14T02:20:45;1.43;;;0.50;;
19788;SDS011;10054;59.332;18.244;2023-03-14T02:22:45;2.77;;;0.60;;
19788;SDS011;10054;59.332;18.244;2023-03-14T02:25:17;3.17;;;0.70;;
19788;SDS011;10054;59.332;18.244;2023-03-14T02:27:46;1.77;;;0.70;;
19788;SDS011;10054;59.332;18.244;2023-03-14T02:30:19;1.00;;;0.50;;
19788;SDS011;10054;59.332;18.244;2023-03-14T02:32:54;1.90;;;0.67;;
19788;SDS011;10054;59.332;18.244;2023-03-14T02:35:24;5.10;;;0.60;;
19788;SDS011;10054;59.332;18.244;2023-03-14T02:38:00;2.30;;;0.70;;
19788;SDS011;10054;59.332;18.244;2023-03-14T02:40:35;1.70;;;0.63;;
19788;SDS011;10054;59.332;18.244;2023-03-14T02:43:04;0.90;;;0.60;;
19788;SDS011;10054;59.332;18.244;2023-03-14T02:45:39;3.90;;;0.90;;
19788;SDS011;10054;59.332;18.244;2023-03-14T02:48:13;4.00;;;0.73;;
19788;SDS011;10054;59.332;18.244;2023-03-14T02:50:43;2.93;;;0.60;;
19788;SDS011;10054;59.332;18.244;2023-03-14T02:53:16;2.87;;;0.77;;
19788;SDS011;10054;59.332;18.244;2023-03-14T02:55:47;2.90;;;0.60;;
19788;SDS011;10054;59.332;18.244;2023-03-14T02:58:17;3.00;;;0.70;;
19788;SDS011;10054;59.332;18.244;2023-03-14T03:00:48;1.53;;;0.53;;
19788;SDS011;10054;59.332;18.244;2023-03-14T03:03:17;2.70;;;0.80;;
19788;SDS011;10054;59.332;18.244;2023-03-14T03:05:51;3.10;;;0.80;;
19788;SDS011;10054;59.332;18.244;2023-03-14T03:08:22;1.87;;;0.83;;
19788;SDS011;10054;59.332;18.244;2023-03-14T03:10:54;1.93;;;0.70;;
19788;SDS011;10054;59.332;18.244;2023-03-14T03:13:26;1.03;;;0.60;;
19788;SDS011;10054;59.332;18.244;2023-03-14T03:15:55;2.73;;;0.90;;
19788;SDS011;10054;59.332;18.244;2023-03-14T03:18:24;2.23;;;0.80;;
19788;SDS011;10054;59.332;18.244;2023-03-14T03:20:53;3.80;;;0.93;;
19788;SDS011;10054;59.332;18.244;2023-03-14T03:23:22;1.70;;;0.90;;
19788;SDS011;10054;59.332;18.244;2023-03-14T03:25:51;3.77;;;0.80;;
19788;SDS011;10054;59.332;18.244;2023-03-14T03:28:20;3.03;;;0.80;;
19788;SDS011;10054;59.332;18.244;2023-03-14T03:30:49;2.30;;;0.87;;
19788;SDS011;10054;59.332;18.244;2023-03-14T03:33:18;1.00;;;0.50;;
19788;SDS011;10054;59.332;18.244;2023-03-14T03:35:49;2.43;;;0.80;;
19788;SDS011;10054;59.332;18.244;2023-03-14T03:38:20;2.70;;;0.70;;
19788;SDS011;10054;59.332;18.244;2023-03-14T03:40:50;3.47;;;0.80;;
19788;SDS011;10054;59.332;18.244;2023-03-14T03:43:21;3.07;;;0.90;;
19788;SDS011;10054;59.332;18.244;2023-03-14T03:45:50;2.67;;;0.90;;
19788;SDS011;10054;59.332;18.244;2023-03-14T03:48:20;3.30;;;0.73;;
19788;SDS011;10054;59.332;18.244;2023-03-14T03:50:49;2.40;;;0.80;;
19788;SDS011;10054;59.332;18.244;2023-03-14T03:53:19;3.70;;;1.00;;
19788;SDS011;10054;59.332;18.244;2023-03-14T03:55:48;1.77;;;0.70;;
19788;SDS011;10054;59.332;18.244;2023-03-14T03:58:18;3.10;;;1.00;;
19788;SDS011;10054;59.332;18.244;2023-03-14T04:00:47;3.07;;;1.10;;
19788;SDS011;10054;59.332;18.244;2023-03-14T04:03:16;2.57;;;1.00;;
19788;SDS011;10054;59.332;18.244;2023-03-14T04:05:45;3.30;;;1.00;;
19788;SDS011;10054;59.332;18.244;2023-03-14T04:08:14;1.80;;;0.90;;
19788;SDS011;10054;59.332;18.244;2023-03-14T04:10:43;5.93;;;1.00;;
19788;SDS011;10054;59.332;18.244;2023-03-14T04:13:19;4.00;;;0.70;;
19788;SDS011;10054;59.332;18.244;2023-03-14T04:15:49;4.20;;;1.03;;
19788;SDS011;10054;59.332;18.244;2023-03-14T04:18:20;2.00;;;0.73;;
19788;SDS011;10054;59.332;18.244;2023-03-14T04:20:52;0.77;;;0.50;;
19788;SDS011;10054;59.332;18.244;2023-03-14T04:23:24;1.40;;;0.50;;
19788;SDS011;10054;59.332;18.244;2023-03-14T04:25:54;0.50;;;0.50;;
19788;SDS011;10054;59.332;18.244;2023-03-14T04:28:24;2.03;;;0.60;;
19788;SDS011;10054;59.332;18.244;2023-03-14T04:30:54;2.10;;;0.77;;
19788;SDS011;10054;59.332;18.244;2023-03-14T04:33:24;3.77;;;0.60;;
19788;SDS011;10054;59.332;18.244;2023-03-14T04:35:55;1.57;;;0.70;;
19788;SDS011;10054;59.332;18.244;2023-03-14T04:38:24;0.77;;;0.63;;
19788;SDS011;10054;59.332;18.244;2023-03-14T04:40:55;2.03;;;0.70;;
19788;SDS011;10054;59.332;18.244;2023-03-14T04:43:25;1.97;;;0.60;;
19788;SDS011;10054;59.332;18.244;2023-03-14T04:45:57;3.00;;;0.80;;
19788;SDS011;10054;59.332;18.244;2023-03-14T04:48:27;2.17;;;0.60;;
19788;SDS011;10054;59.332;18.244;2023-03-14T04:50:56;1.10;;;0.60;;
19788;SDS011;10054;59.332;18.244;2023-03-14T04:53:27;1.93;;;0.70;;
19788;SDS011;10054;59.332;18.244;2023-03-14T04:55:57;2.10;;;0.70;;
19788;SDS011;10054;59.332;18.244;2023-03-14T04:58:27;2.03;;;0.80;;
19788;SDS011;10054;59.332;18.244;2023-03-14T05:01:01;1.10;;;0.70;;
19788;SDS011;10054;59.332;18.244;2023-03-14T05:03:33;1.73;;;0.90;;
19788;SDS011;10054;59.332;18.244;2023-03-14T05:06:08;2.40;;;0.80;;
19788;SDS011;10054;59.332;18.244;2023-03-14T05:08:54;3.07;;;0.90;;
19788;SDS011;10054;59.332;18.244;2023-03-14T05:11:25;1.23;;;0.80;;
19788;SDS011;10054;59.332;18.244;2023-03-14T05:14:13;1.67;;;0.70;;
19788;SDS011;10054;59.332;18.244;2023-03-14T05:16:58;1.53;;;0.80;;
19788;SDS011;10054;59.332;18.244;2023-03-14T05:19:28;1.23;;;0.70;;
19788;SDS011;10054;59.332;18.244;2023-03-14T05:22:15;1.10;;;0.77;;
19788;SDS011;10054;59.332;18.244;2023-03-14T05:25:02;3.07;;;0.90;;
19788;SDS011;10054;59.332;18.244;2023-03-14T05:27:32;1.47;;;0.70;;
19788;SDS011;10054;59.332;18.244;2023-03-14T05:30:20;3.13;;;0.80;;
19788;SDS011;10054;59.332;18.244;2023-03-14T05:33:07;0.83;;;0.60;;
19788;SDS011;10054;59.332;18.244;2023-03-14T05:35:37;2.97;;;0.80;;
19788;SDS011;10054;59.332;18.244;2023-03-14T05:38:08;5.97;;;0.77;;
19788;SDS011;10054;59.332;18.244;2023-03-14T05:40:44;1.27;;;0.63;;
19788;SDS011;10054;59.332;18.244;2023-03-14T05:43:15;2.37;;;0.70;;
19788;SDS011;10054;59.332;18.244;2023-03-14T05:46:01;2.03;;;0.90;;
19788;SDS011;10054;59.332;18.244;2023-03-14T05:48:34;2.53;;;0.70;;
19788;SDS011;10054;59.332;18.244;2023-03-14T05:51:11;1.67;;;0.70;;
19788;SDS011;10054;59.332;18.244;2023-03-14T05:53:45;1.00;;;0.60;;
19788;SDS011;10054;59.332;18.244;2023-03-14T05:56:31;2.93;;;0.90;;
19788;SDS011;10054;59.332;18.244;2023-03-14T05:59:05;1.87;;;0.70;;
19788;SDS011;10054;59.332;18.244;2023-03-14T06:01:39;3.23;;;0.93;;
19788;SDS011;10054;59.332;18.244;2023-03-14T06:04:11;2.57;;;0.77;;
19788;SDS011;10054;59.332;18.244;2023-03-14T06:06:42;1.90;;;0.80;;
19788;SDS011;10054;59.332;18.244;2023-03-14T06:09:11;2.27;;;1.00;;
19788;SDS011;10054;59.332;18.244;2023-03-14T06:11:41;2.33;;;0.60;;
19788;SDS011;10054;59.332;18.244;2023-03-14T06:14:10;1.33;;;0.80;;
19788;SDS011;10054;59.332;18.244;2023-03-14T06:16:41;2.47;;;0.80;;
19788;SDS011;10054;59.332;18.244;2023-03-14T06:19:10;4.70;;;0.80;;
19788;SDS011;10054;59.332;18.244;2023-03-14T06:21:40;1.23;;;0.70;;
19788;SDS011;10054;59.332;18.244;2023-03-14T06:24:09;4.17;;;0.80;;
19788;SDS011;10054;59.332;18.244;2023-03-14T06:26:39;2.73;;;0.77;;
19788;SDS011;10054;59.332;18.244;2023-03-14T06:29:09;2.60;;;0.57;;
19788;SDS011;10054;59.332;18.244;2023-03-14T06:31:38;1.37;;;0.70;;
19788;SDS011;10054;59.332;18.244;2023-03-14T06:34:08;1.70;;;0.70;;
19788;SDS011;10054;59.332;18.244;2023-03-14T06:36:38;2.13;;;0.80;;
19788;SDS011;10054;59.332;18.244;2023-03-14T06:39:07;2.80;;;0.80;;
19788;SDS011;10054;59.332;18.244;2023-03-14T06:41:38;2.67;;;0.70;;
19788;SDS011;10054;59.332;18.244;2023-03-14T06:44:08;0.63;;;0.60;;
19788;SDS011;10054;59.332;18.244;2023-03-14T06:46:37;2.67;;;0.80;;
19788;SDS011;10054;59.332;18.244;2023-03-14T06:49:06;4.03;;;0.93;;
19788;SDS011;10054;59.332;18.244;2023-03-14T06:51:35;2.03;;;0.87;;
19788;SDS011;10054;59.332;18.244;2023-03-14T06:54:05;2.23;;;0.50;;
19788;SDS011;10054;59.332;18.244;2023-03-14T06:56:35;4.20;;;0.83;;
19788;SDS011;10054;59.332;18.244;2023-03-14T06:59:04;2.90;;;0.80;;
19788;SDS011;10054;59.332;18.244;2023-03-14T07:01:33;2.27;;;0.70;;
19788;SDS011;10054;59.332;18.244;2023-03-14T07:04:08;3.37;;;0.70;;
19788;SDS011;10054;59.332;18.244;2023-03-14T07:06:39;2.50;;;0.60;;
19788;SDS011;10054;59.332;18.244;2023-03-14T07:09:10;1.97;;;0.67;;
19788;SDS011;10054;59.332;18.244;2023-03-14T07:11:40;1.47;;;0.60;;
19788;SDS011;10054;59.332;18.244;2023-03-14T07:14:10;3.03;;;1.03;;
19788;SDS011;10054;59.332;18.244;2023-03-14T07:16:39;4.30;;;0.70;;
19788;SDS011;10054;59.332;18.244;2023-03-14T07:19:08;3.07;;;0.73;;
19788;SDS011;10054;59.332;18.244;2023-03-14T07:21:38;2.57;;;0.80;;
19788;SDS011;10054;59.332;18.244;2023-03-14T07:24:08;3.53;;;0.80;;
19788;SDS011;10054;59.332;18.244;2023-03-14T07:26:37;1.10;;;0.47;;
19788;SDS011;10054;59.332;18.244;2023-03-14T07:29:06;1.53;;;0.60;;
19788;SDS011;10054;59.332;18.244;2023-03-14T07:31:35;2.57;;;0.93;;
19788;SDS011;10054;59.332;18.244;2023-03-14T07:34:04;2.17;;;0.70;;
19788;SDS011;10054;59.332;18.244;2023-03-14T07:36:35;1.90;;;0.90;;
19788;SDS011;10054;59.332;18.244;2023-03-14T07:39:04;1.93;;;0.70;;
19788;SDS011;10054;59.332;18.244;2023-03-14T07:41:41;2.10;;;0.80;;
19788;SDS011;10054;59.332;18.244;2023-03-14T07:44:20;2.83;;;0.67;;
19788;SDS011;10054;59.332;18.244;2023-03-14T07:46:49;1.40;;;0.60;;
19788;SDS011;10054;59.332;18.244;2023-03-14T07:49:18;1.13;;;0.53;;
19788;SDS011;10054;59.332;18.244;2023-03-14T07:51:50;1.67;;;0.70;;
19788;SDS011;10054;59.332;18.244;2023-03-14T07:54:18;2.80;;;0.67;;
19788;SDS011;10054;59.332;18.244;2023-03-14T07:56:47;1.47;;;0.60;;
19788;SDS011;10054;59.332;18.244;2023-03-14T07:59:16;3.83;;;1.00;;
19788;SDS011;10054;59.332;18.244;2023-03-14T08:01:45;2.30;;;0.80;;
19788;SDS011;10054;59.332;18.244;2023-03-14T08:04:14;4.50;;;0.77;;
19788;SDS011;10054;59.332;18.244;2023-03-14T08:06:43;1.13;;;0.60;;
19788;SDS011;10054;59.332;18.244;2023-03-14T08:09:12;4.50;;;0.90;;
19788;SDS011;10054;59.332;18.244;2023-03-14T08:11:41;1.17;;;0.63;;
19788;SDS011;10054;59.332;18.244;2023-03-14T08:14:10;3.30;;;0.90;;
19788;SDS011;10054;59.332;18.244;2023-03-14T08:16:38;0.93;;;0.67;;
19788;SDS011;10054;59.332;18.244;2023-03-14T08:19:07;0.90;;;0.70;;
19788;SDS011;10054;59.332;18.244;2023-03-14T08:21:36;1.57;;;0.80;;
19788;SDS011;10054;59.332;18.244;2023-03-14T08:24:06;0.97;;;0.80;;
19788;SDS011;10054;59.332;18.244;2023-03-14T08:26:35;1.53;;;0.67;;
19788;SDS011;10054;59.332;18.244;2023-03-14T08:29:04;2.20;;;0.70;;
19788;SDS011;10054;59.332;18.244;2023-03-14T08:31:40;1.23;;;0.80;;
19788;SDS011;10054;59.332;18.244;2023-03-14T08:34:08;1.13;;;0.77;;
19788;SDS011;10054;59.332;18.244;2023-03-14T08:36:37;0.80;;;0.57;;
19788;SDS011;10054;59.332;18.244;2023-03-14T08:39:06;0.67;;;0.33;;
19788;SDS011;10054;59.332;18.244;2023-03-14T08:41:35;1.77;;;0.37;;
19788;SDS011;10054;59.332;18.244;2023-03-14T08:44:06;1.27;;;0.50;;
19788;SDS011;10054;59.332;18.244;2023-03-14T08:46:34;2.50;;;0.60;;
19788;SDS011;10054;59.332;18.244;2023-03-14T08:49:03;1.50;;;0.60;;
19788;SDS011;10054;59.332;18.244;2023-03-14T08:51:32;1.07;;;0.47;;
19788;SDS011;10054;59.332;18.244;2023-03-14T08:54:01;1.67;;;0.53;;
19788;SDS011;10054;59.332;18.244;2023-03-14T08:56:30;1.63;;;0.50;;
19788;SDS011;10054;59.332;18.244;2023-03-14T08:58:59;0.80;;;0.40;;
19788;SDS011;10054;59.332;18.244;2023-03-14T09:01:27;0.43;;;0.40;;
19788;SDS011;10054;59.332;18.244;2023-03-14T09:03:56;0.97;;;0.60;;
19788;SDS011;10054;59.332;18.244;2023-03-14T09:06:25;0.40;;;0.40;;
19788;SDS011;10054;59.332;18.244;2023-03-14T09:08:54;0.60;;;0.60;;
19788;SDS011;10054;59.332;18.244;2023-03-14T09:11:22;1.40;;;0.50;;
19788;SDS011;10054;59.332;18.244;2023-03-14T09:13:51;0.87;;;0.50;;
19788;SDS011;10054;59.332;18.244;2023-03-14T09:16:20;0.80;;;0.50;;
19788;SDS011;10054;59.332;18.244;2023-03-14T09:18:49;1.03;;;0.50;;
19788;SDS011;10054;59.332;18.244;2023-03-14T09:21:19;0.43;;;0.40;;
19788;SDS011;10054;59.332;18.244;2023-03-14T09:23:49;0.40;;;0.33;;
19788;SDS011;10054;59.332;18.244;2023-03-14T09:26:17;0.50;;;0.30;;
19788;SDS011;10054;59.332;18.244;2023-03-14T09:28:46;0.67;;;0.50;;
19788;SDS011;10054;59.332;18.244;2023-03-14T09:31:15;0.40;;;0.40;;
19788;SDS011;10054;59.332;18.244;2023-03-14T09:33:44;0.90;;;0.40;;
19788;SDS011;10054;59.332;18.244;2023-03-14T09:36:13;0.47;;;0.37;;
19788;SDS011;10054;59.332;18.244;2023-03-14T09:38:41;1.20;;;0.30;;
19788;SDS011;10054;59.332;18.244;2023-03-14T09:44:03;0.30;;;0.30;;
19788;SDS011;10054;59.332;18.244;2023-03-14T09:46:38;0.53;;;0.20;;
19788;SDS011;10054;59.332;18.244;2023-03-14T09:49:14;0.20;;;0.20;;
19788;SDS011;10054;59.332;18.244;2023-03-14T09:51:44;1.97;;;0.60;;
19788;SDS011;10054;59.332;18.244;2023-03-14T09:54:29;0.20;;;0.20;;
19788;SDS011;10054;59.332;18.244;2023-03-14T09:56:46;0.20;;;0.20;;
19788;SDS011;10054;59.332;18.244;2023-03-14T09:59:15;0.47;;;0.30;;
19788;SDS011;10054;59.332;18.244;2023-03-14T10:01:44;0.10;;;0.10;;
19788;SDS011;10054;59.332;18.244;2023-03-14T10:04:14;0.20;;;0.20;;
19788;SDS011;10054;59.332;18.244;2023-03-14T10:06:45;0.20;;;0.20;;
19788;SDS011;10054;59.332;18.244;2023-03-14T10:09:23;0.20;;;0.20;;
19788;SDS011;10054;59.332;18.244;2023-03-14T10:11:53;0.37;;;0.20;;
19788;SDS011;10054;59.332;18.244;2023-03-14T10:14:31;0.20;;;0.20;;
19788;SDS011;10054;59.332;18.244;2023-03-14T10:17:05;0.20;;;0.20;;
19788;SDS011;10054;59.332;18.244;2023-03-14T10:22:24;0.20;;;0.20;;
19788;SDS011;10054;59.332;18.244;2023-03-14T10:25:02;0.20;;;0.20;;
19788;SDS011;10054;59.332;18.244;2023-03-14T10:27:35;0.30;;;0.30;;
19788;SDS011;10054;59.332;18.244;2023-03-14T10:30:07;0.23;;;0.23;;
19788;SDS011;10054;59.332;18.244;2023-03-14T10:37:48;0.30;;;0.30;;
19788;SDS011;10054;59.332;18.244;2023-03-14T10:40:26;0.20;;;0.20;;
19788;SDS011;10054;59.332;18.244;2023-03-14T10:42:57;0.30;;;0.30;;
19788;SDS011;10054;59.332;18.244;2023-03-14T10:45:38;0.67;;;0.40;;
19788;SDS011;10054;59.332;18.244;2023-03-14T10:48:18;0.23;;;0.23;;
19788;SDS011;10054;59.332;18.244;2023-03-14T10:51:11;0.30;;;0.30;;
19788;SDS011;10054;59.332;18.244;2023-03-14T10:53:26;0.30;;;0.30;;
19788;SDS011;10054;59.332;18.244;2023-03-14T10:55:56;0.33;;;0.33;;
19788;SDS011;10054;59.332;18.244;2023-03-14T10:58:26;0.20;;;0.20;;
19788;SDS011;10054;59.332;18.244;2023-03-14T11:01:07;0.47;;;0.30;;
19788;SDS011;10054;59.332;18.244;2023-03-14T11:03:43;0.30;;;0.30;;
19788;SDS011;10054;59.332;18.244;2023-03-14T11:06:16;0.20;;;0.20;;
19788;SDS011;10054;59.332;18.244;2023-03-14T11:08:48;0.23;;;0.23;;
19788;SDS011;10054;59.332;18.244;2023-03-14T11:11:29;1.03;;;0.30;;
19788;SDS011;10054;59.332;18.244;2023-03-14T11:19:36;0.23;;;0.20;;
19788;SDS011;10054;59.332;18.244;2023-03-14T11:22:24;1.00;;;0.37;;
19788;SDS011;10054;59.332;18.244;2023-03-14T11:25:07;0.37;;;0.30;;
19788;SDS011;10054;59.332;18.244;2023-03-14T11:27:44;0.93;;;0.40;;
19788;SDS011;10054;59.332;18.244;2023-03-14T11:33:03;0.20;;;0.20;;
19788;SDS011;10054;59.332;18.244;2023-03-14T11:35:34;0.40;;;0.40;;
19788;SDS011;10054;59.332;18.244;2023-03-14T11:40:58;0.43;;;0.30;;
19788;SDS011;10054;59.332;18.244;2023-03-14T11:43:28;0.30;;;0.30;;
19788;SDS011;10054;59.332;18.244;2023-03-14T11:46:09;0.30;;;0.30;;
19788;SDS011;10054;59.332;18.244;2023-03-14T11:48:36;0.30;;;0.30;;
19788;SDS011;10054;59.332;18.244;2023-03-14T11:51:23;0.27;;;0.27;;
19788;SDS011;10054;59.332;18.244;2023-03-14T11:56:34;0.50;;;0.40;;
19788;SDS011;10054;59.332;18.244;2023-03-14T11:59:11;0.30;;;0.30;;
19788;SDS011;10054;59.332;18.244;2023-03-14T12:02:03;0.20;;;0.20;;
19788;SDS011;10054;59.332;18.244;2023-03-14T12:04:28;0.40;;;0.30;;
19788;SDS011;10054;59.332;18.244;2023-03-14T12:07:06;0.30;;;0.30;;
19788;SDS011;10054;59.332;18.244;2023-03-14T12:09:39;0.53;;;0.30;;
19788;SDS011;10054;59.332;18.244;2023-03-14T12:12:10;0.93;;;0.30;;
19788;SDS011;10054;59.332;18.244;2023-03-14T12:15:04;1.50;;;0.40;;
19788;SDS011;10054;59.332;18.244;2023-03-14T12:20:05;0.47;;;0.40;;
19788;SDS011;10054;59.332;18.244;2023-03-14T12:22:41;0.40;;;0.40;;
19788;SDS011;10054;59.332;18.244;2023-03-14T12:30:28;0.33;;;0.33;;
19788;SDS011;10054;59.332;18.244;2023-03-14T12:35:41;0.40;;;0.40;;
19788;SDS011;10054;59.332;18.244;2023-03-14T12:38:25;3.40;;;0.40;;
19788;SDS011;10054;59.332;18.244;2023-03-14T12:41:15;0.50;;;0.50;;
19788;SDS011;10054;59.332;18.244;2023-03-14T12:46:58;1.57;;;0.50;;
19788;SDS011;10054;59.332;18.244;2023-03-14T12:49:31;4.03;;;0.50;;
19788;SDS011;10054;59.332;18.244;2023-03-14T12:52:02;0.77;;;0.30;;
19788;SDS011;10054;59.332;18.244;2023-03-14T12:54:37;0.40;;;0.40;;
19788;SDS011;10054;59.332;18.244;2023-03-14T13:00:18;0.50;;;0.50;;
19788;SDS011;10054;59.332;18.244;2023-03-14T13:02:48;0.40;;;0.40;;
19788;SDS011;10054;59.332;18.244;2023-03-14T13:05:21;0.77;;;0.50;;
19788;SDS011;10054;59.332;18.244;2023-03-14T13:10:39;0.43;;;0.43;;
19788;SDS011;10054;59.332;18.244;2023-03-14T13:13:13;0.30;;;0.30;;
19788;SDS011;10054;59.332;18.244;2023-03-14T13:15:42;0.83;;;0.50;;
19788;SDS011;10054;59.332;18.244;2023-03-14T13:18:17;0.57;;;0.40;;
19788;SDS011;10054;59.332;18.244;2023-03-14T13:20:58;0.50;;;0.50;;
19788;SDS011;10054;59.332;18.244;2023-03-14T13:23:29;0.50;;;0.50;;
19788;SDS011;10054;59.332;18.244;2023-03-14T13:25:59;0.63;;;0.60;;
19788;SDS011;10054;59.332;18.244;2023-03-14T13:28:29;0.73;;;0.50;;
19788;SDS011;10054;59.332;18.244;2023-03-14T13:31:04;0.87;;;0.60;;
19788;SDS011;10054;59.332;18.244;2023-03-14T13:33:32;0.70;;;0.70;;
19788;SDS011;10054;59.332;18.244;2023-03-14T13:36:02;0.63;;;0.60;;
19788;SDS011;10054;59.332;18.244;2023-03-14T13:38:34;0.60;;;0.60;;
19788;SDS011;10054;59.332;18.244;2023-03-14T13:41:04;0.90;;;0.63;;
19788;SDS011;10054;59.332;18.244;2023-03-14T13:43:40;0.90;;;0.90;;
19788;SDS011;10054;59.332;18.244;2023-03-14T13:46:20;1.53;;;1.07;;
19788;SDS011;10054;59.332;18.244;2023-03-14T13:48:50;1.73;;;1.00;;
19788;SDS011;10054;59.332;18.244;2023-03-14T13:51:36;1.70;;;0.87;;
19788;SDS011;10054;59.332;18.244;2023-03-14T13:54:17;0.70;;;0.70;;
19788;SDS011;10054;59.332;18.244;2023-03-14T13:56:48;0.70;;;0.60;;
19788;SDS011;10054;59.332;18.244;2023-03-14T13:59:31;1.73;;;0.80;;
19788;SDS011;10054;59.332;18.244;2023-03-14T14:01:54;0.70;;;0.70;;
19788;SDS011;10054;59.332;18.244;2023-03-14T14:04:26;1.53;;;0.80;;
19788;SDS011;10054;59.332;18.244;2023-03-14T14:06:56;0.93;;;0.80;;
19788;SDS011;10054;59.332;18.244;2023-03-14T14:09:30;0.80;;;0.80;;
19788;SDS011;10054;59.332;18.244;2023-03-14T14:12:12;0.80;;;0.80;;
19788;SDS011;10054;59.332;18.244;2023-03-14T14:14:43;0.77;;;0.70;;
19788;SDS011;10054;59.332;18.244;2023-03-14T14:17:25;0.77;;;0.70;;
19788;SDS011;10054;59.332;18.244;2023-03-14T14:19:55;1.13;;;0.60;;
19788;SDS011;10054;59.332;18.244;2023-03-14T14:22:25;0.80;;;0.70;;
19788;SDS011;10054;59.332;18.244;2023-03-14T14:24:54;0.70;;;0.60;;
19788;SDS011;10054;59.332;18.244;2023-03-14T14:27:26;0.80;;;0.73;;
19788;SDS011;10054;59.332;18.244;2023-03-14T14:32:40;0.50;;;0.50;;
19788;SDS011;10054;59.332;18.244;2023-03-14T14:35:21;0.50;;;0.50;;
19788;SDS011;10054;59.332;18.244;2023-03-14T14:37:41;1.00;;;0.67;;
19788;SDS011;10054;59.332;18.244;2023-03-14T14:40:31;0.70;;;0.60;;
19788;SDS011;10054;59.332;18.244;2023-03-14T14:42:49;0.53;;;0.53;;
19788;SDS011;10054;59.332;18.244;2023-03-14T14:50:36;0.77;;;0.60;;
19788;SDS011;10054;59.332;18.244;2023-03-14T14:55:53;0.70;;;0.70;;
19788;SDS011;10054;59.332;18.244;2023-03-14T14:58:33;0.70;;;0.70;;
19788;SDS011;10054;59.332;18.244;2023-03-14T15:01:10;1.40;;;0.73;;
19788;SDS011;10054;59.332;18.244;2023-03-14T15:03:42;0.80;;;0.80;;
19788;SDS011;10054;59.332;18.244;2023-03-14T15:06:13;1.10;;;1.00;;
19788;SDS011;10054;59.332;18.244;2023-03-14T15:08:44;0.70;;;0.70;;
19788;SDS011;10054;59.332;18.244;2023-03-14T15:11:19;0.67;;;0.67;;
19788;SDS011;10054;59.332;18.244;2023-03-14T15:13:50;0.70;;;0.70;;
19788;SDS011;10054;59.332;18.244;2023-03-14T15:16:27;0.63;;;0.63;;
19788;SDS011;10054;59.332;18.244;2023-03-14T15:18:55;0.77;;;0.77;;
19788;SDS011;10054;59.332;18.244;2023-03-14T15:21:26;1.90;;;0.87;;
19788;SDS011;10054;59.332;18.244;2023-03-14T15:23:55;0.73;;;0.67;;
19788;SDS011;10054;59.332;18.244;2023-03-14T15:26:25;0.60;;;0.60;;
19788;SDS011;10054;59.332;18.244;2023-03-14T15:28:55;1.33;;;0.60;;
19788;SDS011;10054;59.332;18.244;2023-03-14T15:31:24;1.23;;;1.07;;
19788;SDS011;10054;59.332;18.244;2023-03-14T15:33:53;0.60;;;0.60;;
19788;SDS011;10054;59.332;18.244;2023-03-14T15:36:23;1.50;;;0.87;;
19788;SDS011;10054;59.332;18.244;2023-03-14T15:38:54;0.53;;;0.53;;
19788;SDS011;10054;59.332;18.244;2023-03-14T15:41:24;0.57;;;0.57;;
19788;SDS011;10054;59.332;18.244;2023-03-14T15:43:53;0.53;;;0.53;;
19788;SDS011;10054;59.332;18.244;2023-03-14T15:46:23;2.10;;;0.40;;
19788;SDS011;10054;59.332;18.244;2023-03-14T15:48:52;0.50;;;0.50;;
19788;SDS011;10054;59.332;18.244;2023-03-14T15:51:21;0.40;;;0.40;;
19788;SDS011;10054;59.332;18.244;2023-03-14T15:53:50;1.10;;;0.73;;
19788;SDS011;10054;59.332;18.244;2023-03-14T15:56:20;0.90;;;0.90;;
19788;SDS011;10054;59.332;18.244;2023-03-14T15:58:50;0.70;;;0.70;;